aviador You're here:

LJLJ Decoded Metar

LJUBLIANA in SLOVENIA
Report Time2017-09-23 09:00:00
UTC Time2017-09-23 09:08:19
Flight Rules vfr VFR
Wind060° at 04 kt
W.Decomp.*RWY 12: 1.9 kt HW 3.5 kt LCW
W.Rank060° ranks 21
Current wind is above 060° avg. (2.9)
Visibility9999 m
Phenomena:N/A
Clouds:Few 007 Hf
Expected CloudBase > 800 ft AGL from Temp-Dew spread
CeilingNone
Temp13°C (ISA +1)
Dew Point11°C (88% RH)
AAT11.9°C
QNH1022 hPa
Density Alt1,201 ft
Elevation1,263 ft
Report Wrong Elevation
Raw Report
METAR LJLJ 230900Z 06004KT 360V100 9999 FEW007 13/11 Q1022 NOSIG=

Extra information for LJLJ:More info

Metar Taf Metar & Taf Last 4 Metars F.Rules Stats Wind Profile Meteogram Temp Stats Airport Information Weather charts Add Link Nearby VenuesMetar ALERT Operation Metar Decoded Social comments

Webcam at LJLJ